Ausonia, Argentina
Current Conditions -  °F | °C
As of 6:00 AM on Wednesday 26 Nov 2014 (Local Time) from SAOC Reporting Station
Thunderstorm Thunderstorm  
Wind Chill: 61°   Ceiling: 5000
Heat Index: 61°   Visibility: 3mi
Dew Point: 54°   Wind: 8mph
Humidity: 77%   Direction: 180°S
Pressure: 29.91"   Gusts: NA
Location:  32.35°S, 63.22°W
Report Text: SAOC 260900Z 18007KT 5000 TSRA SCT010FEW040CB BKN050 16/12 Q1013
Loading
Personal Weather Stations






























Interactive Weather Map New forecast layout! Learn more

10-Day Weather Forecast

Advertisements
Track Severe Weather on mobile